sensor_id;sensor_type;location;lat;lon;timestamp;pressure;altitude;pressure_sealevel;temperature;humidity
64080;BME280;51042;49.696;10.808;2024-02-23T00:01:25;96286.78;;;8.35;100.00
64080;BME280;51042;49.696;10.808;2024-02-23T00:03:51;96302.41;;;8.34;100.00
64080;BME280;51042;49.696;10.808;2024-02-23T00:06:17;96311.88;;;8.33;100.00
64080;BME280;51042;49.696;10.808;2024-02-23T00:08:42;96322.19;;;8.29;100.00
64080;BME280;51042;49.696;10.808;2024-02-23T00:11:08;96340.19;;;8.21;100.00
64080;BME280;51042;49.696;10.808;2024-02-23T00:13:33;96362.03;;;8.21;100.00
64080;BME280;51042;49.696;10.808;2024-02-23T00:15:59;96369.66;;;8.17;100.00
64080;BME280;51042;49.696;10.808;2024-02-23T00:18:24;96380.56;;;8.17;100.00
64080;BME280;51042;49.696;10.808;2024-02-23T00:20:50;96363.16;;;8.14;100.00
64080;BME280;51042;49.696;10.808;2024-02-23T00:23:15;96369.28;;;8.09;100.00
64080;BME280;51042;49.696;10.808;2024-02-23T00:25:41;96378.09;;;8.04;100.00
64080;BME280;51042;49.696;10.808;2024-02-23T00:28:06;96384.22;;;7.99;100.00
64080;BME280;51042;49.696;10.808;2024-02-23T00:30:32;96391.38;;;7.97;100.00
64080;BME280;51042;49.696;10.808;2024-02-23T00:32:58;96406.91;;;7.91;100.00
64080;BME280;51042;49.696;10.808;2024-02-23T00:35:23;96408.75;;;7.85;100.00
64080;BME280;51042;49.696;10.808;2024-02-23T00:37:49;96442.44;;;7.82;100.00
64080;BME280;51042;49.696;10.808;2024-02-23T00:40:14;96445.66;;;7.80;100.00
64080;BME280;51042;49.696;10.808;2024-02-23T00:42:40;96451.09;;;7.80;100.00
64080;BME280;51042;49.696;10.808;2024-02-23T00:45:06;96447.78;;;7.76;100.00
64080;BME280;51042;49.696;10.808;2024-02-23T00:47:32;96449.19;;;7.71;100.00
64080;BME280;51042;49.696;10.808;2024-02-23T00:50:00;96450.84;;;7.69;100.00
64080;BME280;51042;49.696;10.808;2024-02-23T00:52:26;96438.91;;;7.66;100.00
64080;BME280;51042;49.696;10.808;2024-02-23T00:54:51;96442.25;;;7.61;100.00
64080;BME280;51042;49.696;10.808;2024-02-23T00:57:17;96432.44;;;7.55;100.00
64080;BME280;51042;49.696;10.808;2024-02-23T00:59:46;96448.97;;;7.51;100.00
64080;BME280;51042;49.696;10.808;2024-02-23T01:02:12;96443.38;;;7.46;100.00
64080;BME280;51042;49.696;10.808;2024-02-23T01:04:37;96452.19;;;7.41;100.00
64080;BME280;51042;49.696;10.808;2024-02-23T01:07:03;96469.03;;;7.39;100.00
64080;BME280;51042;49.696;10.808;2024-02-23T01:09:28;96468.13;;;7.33;100.00
64080;BME280;51042;49.696;10.808;2024-02-23T01:11:54;96462.41;;;7.31;100.00
64080;BME280;51042;49.696;10.808;2024-02-23T01:14:19;96457.09;;;7.27;100.00
64080;BME280;51042;49.696;10.808;2024-02-23T01:16:45;96461.38;;;7.19;100.00
64080;BME280;51042;49.696;10.808;2024-02-23T01:19:10;96485.03;;;7.13;100.00
64080;BME280;51042;49.696;10.808;2024-02-23T01:21:35;96477.47;;;7.08;100.00
64080;BME280;51042;49.696;10.808;2024-02-23T01:24:01;96497.47;;;7.05;100.00
64080;BME280;51042;49.696;10.808;2024-02-23T01:26:26;96492.19;;;7.02;100.00
64080;BME280;51042;49.696;10.808;2024-02-23T01:28:52;96491.88;;;7.00;100.00
64080;BME280;51042;49.696;10.808;2024-02-23T01:31:18;96502.47;;;6.97;100.00
64080;BME280;51042;49.696;10.808;2024-02-23T01:33:43;96493.41;;;6.91;100.00
64080;BME280;51042;49.696;10.808;2024-02-23T01:36:09;96500.97;;;6.87;100.00
64080;BME280;51042;49.696;10.808;2024-02-23T01:38:35;96494.94;;;6.83;100.00
64080;BME280;51042;49.696;10.808;2024-02-23T01:41:00;96510.22;;;6.81;100.00
64080;BME280;51042;49.696;10.808;2024-02-23T01:43:26;96501.63;;;6.73;100.00
64080;BME280;51042;49.696;10.808;2024-02-23T01:45:52;96511.28;;;6.74;100.00
64080;BME280;51042;49.696;10.808;2024-02-23T01:48:18;96507.97;;;6.70;100.00
64080;BME280;51042;49.696;10.808;2024-02-23T01:50:44;96514.34;;;6.67;100.00
64080;BME280;51042;49.696;10.808;2024-02-23T01:53:09;96499.47;;;6.68;100.00
64080;BME280;51042;49.696;10.808;2024-02-23T01:55:37;96511.91;;;6.69;100.00
64080;BME280;51042;49.696;10.808;2024-02-23T01:58:05;96495.41;;;6.64;100.00
64080;BME280;51042;49.696;10.808;2024-02-23T02:00:31;96528.72;;;6.59;100.00
64080;BME280;51042;49.696;10.808;2024-02-23T02:02:57;96529.31;;;6.53;100.00
64080;BME280;51042;49.696;10.808;2024-02-23T02:05:23;96522.34;;;6.52;100.00
64080;BME280;51042;49.696;10.808;2024-02-23T02:07:49;96526.44;;;6.57;100.00
64080;BME280;51042;49.696;10.808;2024-02-23T02:10:19;96532.66;;;6.57;100.00
64080;BME280;51042;49.696;10.808;2024-02-23T02:12:46;96536.88;;;6.59;100.00
64080;BME280;51042;49.696;10.808;2024-02-23T02:15:12;96545.50;;;6.57;100.00
64080;BME280;51042;49.696;10.808;2024-02-23T02:17:37;96547.47;;;6.56;100.00
64080;BME280;51042;49.696;10.808;2024-02-23T02:20:03;96552.94;;;6.56;100.00
64080;BME280;51042;49.696;10.808;2024-02-23T02:22:31;96548.69;;;6.55;100.00
64080;BME280;51042;49.696;10.808;2024-02-23T02:24:58;96550.69;;;6.55;100.00
64080;BME280;51042;49.696;10.808;2024-02-23T02:27:23;96562.47;;;6.52;100.00
64080;BME280;51042;49.696;10.808;2024-02-23T02:29:52;96566.41;;;6.51;100.00
64080;BME280;51042;49.696;10.808;2024-02-23T02:32:17;96578.66;;;6.46;100.00
64080;BME280;51042;49.696;10.808;2024-02-23T02:34:43;96580.63;;;6.46;100.00
64080;BME280;51042;49.696;10.808;2024-02-23T02:37:08;96585.31;;;6.45;100.00
64080;BME280;51042;49.696;10.808;2024-02-23T02:39:34;96594.41;;;6.42;100.00
64080;BME280;51042;49.696;10.808;2024-02-23T02:42:00;96592.56;;;6.39;100.00
64080;BME280;51042;49.696;10.808;2024-02-23T02:44:25;96600.44;;;6.37;100.00
64080;BME280;51042;49.696;10.808;2024-02-23T02:46:55;96609.81;;;6.36;100.00
64080;BME280;51042;49.696;10.808;2024-02-23T02:49:21;96610.28;;;6.35;100.00
64080;BME280;51042;49.696;10.808;2024-02-23T02:51:47;96616.16;;;6.33;100.00
64080;BME280;51042;49.696;10.808;2024-02-23T02:54:12;96619.47;;;6.28;100.00
64080;BME280;51042;49.696;10.808;2024-02-23T02:56:44;96627.81;;;6.25;100.00
64080;BME280;51042;49.696;10.808;2024-02-23T02:59:11;96639.16;;;6.23;100.00
64080;BME280;51042;49.696;10.808;2024-02-23T03:01:37;96635.66;;;6.23;100.00
64080;BME280;51042;49.696;10.808;2024-02-23T03:04:04;96643.22;;;6.19;100.00
64080;BME280;51042;49.696;10.808;2024-02-23T03:06:29;96623.34;;;6.09;100.00
64080;BME280;51042;49.696;10.808;2024-02-23T03:08:55;96617.13;;;5.99;100.00
64080;BME280;51042;49.696;10.808;2024-02-23T03:11:20;96614.06;;;5.88;100.00
64080;BME280;51042;49.696;10.808;2024-02-23T03:13:46;96635.44;;;5.77;100.00
64080;BME280;51042;49.696;10.808;2024-02-23T03:16:15;96639.31;;;5.67;100.00
64080;BME280;51042;49.696;10.808;2024-02-23T03:18:41;96651.19;;;5.60;100.00
64080;BME280;51042;49.696;10.808;2024-02-23T03:21:07;96639.69;;;5.56;100.00
64080;BME280;51042;49.696;10.808;2024-02-23T03:23:34;96647.09;;;5.56;100.00
64080;BME280;51042;49.696;10.808;2024-02-23T03:26:00;96644.19;;;5.50;100.00
64080;BME280;51042;49.696;10.808;2024-02-23T03:28:25;96647.06;;;5.47;100.00
64080;BME280;51042;49.696;10.808;2024-02-23T03:30:52;96655.97;;;5.47;100.00
64080;BME280;51042;49.696;10.808;2024-02-23T03:33:17;96661.09;;;5.45;100.00
64080;BME280;51042;49.696;10.808;2024-02-23T03:35:43;96665.91;;;5.41;100.00
64080;BME280;51042;49.696;10.808;2024-02-23T03:38:08;96650.47;;;5.38;100.00
64080;BME280;51042;49.696;10.808;2024-02-23T03:40:34;96668.63;;;5.41;100.00
64080;BME280;51042;49.696;10.808;2024-02-23T03:43:00;96672.88;;;5.42;100.00
64080;BME280;51042;49.696;10.808;2024-02-23T03:45:27;96681.16;;;5.39;100.00
64080;BME280;51042;49.696;10.808;2024-02-23T03:47:52;96687.78;;;5.38;100.00
64080;BME280;51042;49.696;10.808;2024-02-23T03:50:18;96695.63;;;5.36;100.00
64080;BME280;51042;49.696;10.808;2024-02-23T03:52:44;96693.47;;;5.30;100.00
64080;BME280;51042;49.696;10.808;2024-02-23T03:55:09;96689.78;;;5.24;100.00
64080;BME280;51042;49.696;10.808;2024-02-23T03:57:35;96670.75;;;5.24;100.00
64080;BME280;51042;49.696;10.808;2024-02-23T04:00:01;96678.91;;;5.24;100.00
64080;BME280;51042;49.696;10.808;2024-02-23T04:02:27;96678.47;;;5.26;100.00
64080;BME280;51042;49.696;10.808;2024-02-23T04:04:53;96668.34;;;5.26;100.00
64080;BME280;51042;49.696;10.808;2024-02-23T04:07:21;96668.13;;;5.33;100.00
64080;BME280;51042;49.696;10.808;2024-02-23T04:09:47;96648.19;;;5.37;100.00
64080;BME280;51042;49.696;10.808;2024-02-23T04:12:23;96648.84;;;5.41;100.00
64080;BME280;51042;49.696;10.808;2024-02-23T04:14:49;96654.91;;;5.45;100.00
64080;BME280;51042;49.696;10.808;2024-02-23T04:17:16;96660.66;;;5.47;100.00
64080;BME280;51042;49.696;10.808;2024-02-23T04:19:42;96668.34;;;5.48;100.00
64080;BME280;51042;49.696;10.808;2024-02-23T04:22:08;96654.75;;;5.48;100.00
64080;BME280;51042;49.696;10.808;2024-02-23T04:24:40;96654.31;;;5.50;100.00
64080;BME280;51042;49.696;10.808;2024-02-23T04:27:09;96658.56;;;5.51;100.00
64080;BME280;51042;49.696;10.808;2024-02-23T04:29:34;96663.88;;;5.54;100.00
64080;BME280;51042;49.696;10.808;2024-02-23T04:32:00;96681.28;;;5.57;100.00
64080;BME280;51042;49.696;10.808;2024-02-23T04:34:27;96696.84;;;5.56;100.00
64080;BME280;51042;49.696;10.808;2024-02-23T04:36:53;96702.28;;;5.56;100.00
64080;BME280;51042;49.696;10.808;2024-02-23T04:39:19;96713.72;;;5.51;100.00
64080;BME280;51042;49.696;10.808;2024-02-23T04:41:45;96742.63;;;5.36;100.00
64080;BME280;51042;49.696;10.808;2024-02-23T04:44:10;96758.88;;;5.27;100.00
64080;BME280;51042;49.696;10.808;2024-02-23T04:46:37;96766.38;;;5.23;100.00
64080;BME280;51042;49.696;10.808;2024-02-23T04:49:03;96782.81;;;5.19;100.00
64080;BME280;51042;49.696;10.808;2024-02-23T04:51:29;96772.19;;;5.12;100.00
64080;BME280;51042;49.696;10.808;2024-02-23T04:53:56;96770.31;;;5.09;100.00
64080;BME280;51042;49.696;10.808;2024-02-23T04:56:22;96794.47;;;5.07;100.00
64080;BME280;51042;49.696;10.808;2024-02-23T04:58:48;96811.22;;;5.06;100.00
64080;BME280;51042;49.696;10.808;2024-02-23T05:01:15;96826.78;;;5.05;100.00
64080;BME280;51042;49.696;10.808;2024-02-23T05:03:40;96829.94;;;5.04;100.00
64080;BME280;51042;49.696;10.808;2024-02-23T05:06:06;96824.06;;;4.92;100.00
64080;BME280;51042;49.696;10.808;2024-02-23T05:08:32;96815.38;;;4.85;100.00
64080;BME280;51042;49.696;10.808;2024-02-23T05:10:58;96840.78;;;4.78;100.00
64080;BME280;51042;49.696;10.808;2024-02-23T05:13:24;96828.19;;;4.72;100.00
64080;BME280;51042;49.696;10.808;2024-02-23T05:15:55;96832.97;;;4.68;100.00
64080;BME280;51042;49.696;10.808;2024-02-23T05:18:22;96823.06;;;4.61;100.00
64080;BME280;51042;49.696;10.808;2024-02-23T05:20:48;96824.38;;;4.57;100.00
64080;BME280;51042;49.696;10.808;2024-02-23T05:23:15;96842.28;;;4.54;100.00
64080;BME280;51042;49.696;10.808;2024-02-23T05:25:42;96843.94;;;4.51;100.00
64080;BME280;51042;49.696;10.808;2024-02-23T05:28:07;96857.59;;;4.48;100.00
64080;BME280;51042;49.696;10.808;2024-02-23T05:30:33;96867.06;;;4.43;100.00
64080;BME280;51042;49.696;10.808;2024-02-23T05:32:59;96874.09;;;4.41;100.00
64080;BME280;51042;49.696;10.808;2024-02-23T05:35:28;96873.78;;;4.39;100.00
64080;BME280;51042;49.696;10.808;2024-02-23T05:37:54;96866.94;;;4.34;100.00
64080;BME280;51042;49.696;10.808;2024-02-23T05:40:20;96861.94;;;4.33;100.00
64080;BME280;51042;49.696;10.808;2024-02-23T05:42:46;96874.41;;;4.30;100.00
64080;BME280;51042;49.696;10.808;2024-02-23T05:45:13;96879.84;;;4.30;100.00
64080;BME280;51042;49.696;10.808;2024-02-23T05:47:38;96885.25;;;4.30;100.00
64080;BME280;51042;49.696;10.808;2024-02-23T05:50:05;96898.06;;;4.30;100.00
64080;BME280;51042;49.696;10.808;2024-02-23T05:52:31;96874.84;;;4.29;100.00
64080;BME280;51042;49.696;10.808;2024-02-23T05:54:58;96883.31;;;4.31;100.00
64080;BME280;51042;49.696;10.808;2024-02-23T05:57:25;96887.56;;;4.32;100.00
64080;BME280;51042;49.696;10.808;2024-02-23T05:59:52;96890.69;;;4.30;100.00
64080;BME280;51042;49.696;10.808;2024-02-23T06:02:20;96894.28;;;4.27;100.00
64080;BME280;51042;49.696;10.808;2024-02-23T06:04:46;96901.00;;;4.23;100.00
64080;BME280;51042;49.696;10.808;2024-02-23T06:07:13;96913.47;;;4.20;100.00
64080;BME280;51042;49.696;10.808;2024-02-23T06:09:42;96927.88;;;4.17;100.00
64080;BME280;51042;49.696;10.808;2024-02-23T06:12:08;96940.81;;;4.13;100.00
64080;BME280;51042;49.696;10.808;2024-02-23T06:14:35;96935.78;;;4.11;100.00
64080;BME280;51042;49.696;10.808;2024-02-23T06:17:01;96935.91;;;4.08;100.00
64080;BME280;51042;49.696;10.808;2024-02-23T06:19:28;96939.91;;;4.03;100.00
64080;BME280;51042;49.696;10.808;2024-02-23T06:21:54;96952.03;;;3.99;100.00
64080;BME280;51042;49.696;10.808;2024-02-23T06:24:20;96964.16;;;3.94;100.00
64080;BME280;51042;49.696;10.808;2024-02-23T06:26:47;96966.22;;;3.90;100.00
64080;BME280;51042;49.696;10.808;2024-02-23T06:29:14;96961.97;;;3.89;100.00
64080;BME280;51042;49.696;10.808;2024-02-23T06:31:41;96975.53;;;3.89;100.00
64080;BME280;51042;49.696;10.808;2024-02-23T06:34:07;96984.84;;;3.88;100.00
64080;BME280;51042;49.696;10.808;2024-02-23T06:36:34;96987.16;;;3.90;100.00
64080;BME280;51042;49.696;10.808;2024-02-23T06:39:01;97005.72;;;3.91;100.00
64080;BME280;51042;49.696;10.808;2024-02-23T06:41:30;97005.72;;;3.91;100.00
64080;BME280;51042;49.696;10.808;2024-02-23T06:43:56;97002.25;;;3.91;100.00
64080;BME280;51042;49.696;10.808;2024-02-23T06:46:22;96998.78;;;3.90;100.00
64080;BME280;51042;49.696;10.808;2024-02-23T06:48:48;96985.03;;;3.97;100.00
64080;BME280;51042;49.696;10.808;2024-02-23T06:51:13;96975.84;;;4.07;100.00
64080;BME280;51042;49.696;10.808;2024-02-23T06:53:41;96967.94;;;4.13;100.00
64080;BME280;51042;49.696;10.808;2024-02-23T06:56:08;96954.31;;;4.17;100.00
64080;BME280;51042;49.696;10.808;2024-02-23T06:58:35;96950.72;;;4.20;100.00
64080;BME280;51042;49.696;10.808;2024-02-23T07:01:01;96950.72;;;4.20;100.00
64080;BME280;51042;49.696;10.808;2024-02-23T07:03:28;96947.59;;;4.21;100.00
64080;BME280;51042;49.696;10.808;2024-02-23T07:05:55;96941.28;;;4.24;100.00
64080;BME280;51042;49.696;10.808;2024-02-23T07:08:21;96936.97;;;4.27;100.00
64080;BME280;51042;49.696;10.808;2024-02-23T07:10:48;96940.44;;;4.27;100.00
64080;BME280;51042;49.696;10.808;2024-02-23T07:13:14;96930.75;;;4.26;100.00
64080;BME280;51042;49.696;10.808;2024-02-23T07:15:40;96938.81;;;4.30;100.00
64080;BME280;51042;49.696;10.808;2024-02-23T07:18:06;96924.03;;;4.31;100.00
64080;BME280;51042;49.696;10.808;2024-02-23T07:20:33;96926.91;;;4.40;100.00
64080;BME280;51042;49.696;10.808;2024-02-23T07:23:01;96917.03;;;4.46;100.00
64080;BME280;51042;49.696;10.808;2024-02-23T07:25:27;96909.97;;;4.48;100.00
64080;BME280;51042;49.696;10.808;2024-02-23T07:27:53;96899.09;;;4.48;100.00
64080;BME280;51042;49.696;10.808;2024-02-23T07:30:19;96892.91;;;4.48;100.00
64080;BME280;51042;49.696;10.808;2024-02-23T07:32:45;96892.16;;;4.47;100.00
64080;BME280;51042;49.696;10.808;2024-02-23T07:35:14;96886.28;;;4.49;100.00
64080;BME280;51042;49.696;10.808;2024-02-23T07:37:39;96894.78;;;4.51;100.00
64080;BME280;51042;49.696;10.808;2024-02-23T07:40:06;96901.97;;;4.58;100.00
64080;BME280;51042;49.696;10.808;2024-02-23T07:42:33;96897.94;;;4.62;100.00
64080;BME280;51042;49.696;10.808;2024-02-23T07:45:03;96898.72;;;4.63;100.00
64080;BME280;51042;49.696;10.808;2024-02-23T07:47:29;96892.09;;;4.64;100.00
64080;BME280;51042;49.696;10.808;2024-02-23T07:49:56;96898.50;;;4.70;100.00
64080;BME280;51042;49.696;10.808;2024-02-23T07:52:22;96894.06;;;4.76;100.00
64080;BME280;51042;49.696;10.808;2024-02-23T07:54:49;96903.53;;;4.84;100.00
64080;BME280;51042;49.696;10.808;2024-02-23T07:57:19;96914.31;;;4.87;100.00
64080;BME280;51042;49.696;10.808;2024-02-23T07:59:46;96930.28;;;4.98;100.00
64080;BME280;51042;49.696;10.808;2024-02-23T08:02:14;96932.56;;;5.00;100.00
64080;BME280;51042;49.696;10.808;2024-02-23T08:04:40;96902.00;;;4.96;100.00
64080;BME280;51042;49.696;10.808;2024-02-23T08:07:07;96889.94;;;4.97;100.00
64080;BME280;51042;49.696;10.808;2024-02-23T08:09:33;96900.38;;;4.98;100.00
64080;BME280;51042;49.696;10.808;2024-02-23T08:11:59;96897.66;;;4.98;100.00
64080;BME280;51042;49.696;10.808;2024-02-23T08:14:25;96893.22;;;5.04;100.00
64080;BME280;51042;49.696;10.808;2024-02-23T08:16:51;96895.16;;;5.04;100.00
64080;BME280;51042;49.696;10.808;2024-02-23T08:19:17;96893.00;;;5.11;100.00
64080;BME280;51042;49.696;10.808;2024-02-23T08:21:43;96890.50;;;5.17;100.00
64080;BME280;51042;49.696;10.808;2024-02-23T08:24:10;96892.03;;;5.18;100.00
64080;BME280;51042;49.696;10.808;2024-02-23T08:26:36;96888.41;;;5.21;100.00
64080;BME280;51042;49.696;10.808;2024-02-23T08:29:03;96867.63;;;5.27;100.00
64080;BME280;51042;49.696;10.808;2024-02-23T08:31:30;96871.88;;;5.28;100.00
64080;BME280;51042;49.696;10.808;2024-02-23T08:33:57;96867.00;;;5.36;100.00
64080;BME280;51042;49.696;10.808;2024-02-23T08:36:23;96879.06;;;5.34;100.00
64080;BME280;51042;49.696;10.808;2024-02-23T08:38:49;96867.84;;;5.32;100.00
64080;BME280;51042;49.696;10.808;2024-02-23T08:41:17;96862.06;;;5.30;100.00
64080;BME280;51042;49.696;10.808;2024-02-23T08:43:44;96856.53;;;5.34;100.00
64080;BME280;51042;49.696;10.808;2024-02-23T08:46:10;96851.44;;;5.36;100.00
64080;BME280;51042;49.696;10.808;2024-02-23T08:48:36;96848.47;;;5.43;100.00
64080;BME280;51042;49.696;10.808;2024-02-23T08:51:02;96838.34;;;5.44;100.00
64080;BME280;51042;49.696;10.808;2024-02-23T08:53:28;96854.88;;;5.49;100.00
64080;BME280;51042;49.696;10.808;2024-02-23T08:55:56;96867.91;;;5.54;100.00
64080;BME280;51042;49.696;10.808;2024-02-23T08:58:23;96860.97;;;5.53;100.00
64080;BME280;51042;49.696;10.808;2024-02-23T09:00:49;96840.59;;;5.58;100.00
64080;BME280;51042;49.696;10.808;2024-02-23T09:03:16;96836.69;;;5.59;100.00
64080;BME280;51042;49.696;10.808;2024-02-23T09:05:42;96841.22;;;5.62;100.00
64080;BME280;51042;49.696;10.808;2024-02-23T09:08:09;96843.66;;;5.60;100.00
64080;BME280;51042;49.696;10.808;2024-02-23T09:10:35;96841.13;;;5.65;100.00
64080;BME280;51042;49.696;10.808;2024-02-23T09:13:01;96842.19;;;5.68;100.00
64080;BME280;51042;49.696;10.808;2024-02-23T09:15:28;96834.13;;;5.77;100.00
64080;BME280;51042;49.696;10.808;2024-02-23T09:17:54;96838.25;;;5.82;100.00
64080;BME280;51042;49.696;10.808;2024-02-23T09:20:20;96839.75;;;5.83;100.00
64080;BME280;51042;49.696;10.808;2024-02-23T09:22:46;96850.94;;;5.85;100.00
64080;BME280;51042;49.696;10.808;2024-02-23T09:25:13;96857.72;;;5.93;100.00
64080;BME280;51042;49.696;10.808;2024-02-23T09:27:39;96851.69;;;5.98;100.00
64080;BME280;51042;49.696;10.808;2024-02-23T09:30:09;96860.81;;;6.04;100.00
64080;BME280;51042;49.696;10.808;2024-02-23T09:32:39;96854.22;;;6.14;100.00
64080;BME280;51042;49.696;10.808;2024-02-23T09:35:04;96859.13;;;6.19;100.00
64080;BME280;51042;49.696;10.808;2024-02-23T09:37:31;96857.22;;;6.29;100.00
64080;BME280;51042;49.696;10.808;2024-02-23T09:39:57;96861.97;;;6.37;100.00
64080;BME280;51042;49.696;10.808;2024-02-23T09:42:24;96869.44;;;6.46;100.00
64080;BME280;51042;49.696;10.808;2024-02-23T09:44:59;96861.00;;;6.53;100.00
64080;BME280;51042;49.696;10.808;2024-02-23T09:47:28;96861.56;;;6.70;100.00
64080;BME280;51042;49.696;10.808;2024-02-23T09:49:56;96857.63;;;6.71;100.00
64080;BME280;51042;49.696;10.808;2024-02-23T09:52:23;96862.66;;;6.81;100.00
64080;BME280;51042;49.696;10.808;2024-02-23T09:54:50;96860.38;;;6.80;100.00
64080;BME280;51042;49.696;10.808;2024-02-23T09:57:18;96868.63;;;6.89;100.00
64080;BME280;51042;49.696;10.808;2024-02-23T09:59:46;96877.50;;;6.80;100.00
64080;BME280;51042;49.696;10.808;2024-02-23T10:02:14;96886.03;;;6.91;100.00
64080;BME280;51042;49.696;10.808;2024-02-23T10:04:42;96889.09;;;6.93;100.00
64080;BME280;51042;49.696;10.808;2024-02-23T10:07:09;96886.31;;;6.84;100.00
64080;BME280;51042;49.696;10.808;2024-02-23T10:09:35;96881.34;;;6.92;100.00
64080;BME280;51042;49.696;10.808;2024-02-23T10:12:02;96887.28;;;7.00;100.00
64080;BME280;51042;49.696;10.808;2024-02-23T10:14:28;96873.75;;;6.87;100.00
64080;BME280;51042;49.696;10.808;2024-02-23T10:16:54;96891.28;;;6.77;100.00
64080;BME280;51042;49.696;10.808;2024-02-23T10:19:21;96886.88;;;6.79;100.00
64080;BME280;51042;49.696;10.808;2024-02-23T10:21:47;96890.09;;;6.87;100.00
64080;BME280;51042;49.696;10.808;2024-02-23T10:24:13;96886.31;;;6.84;100.00
64080;BME280;51042;49.696;10.808;2024-02-23T10:26:41;96883.13;;;6.86;100.00
64080;BME280;51042;49.696;10.808;2024-02-23T10:29:07;96886.25;;;6.97;100.00
64080;BME280;51042;49.696;10.808;2024-02-23T10:31:35;96893.38;;;7.04;100.00
64080;BME280;51042;49.696;10.808;2024-02-23T10:34:08;96894.59;;;7.03;100.00
64080;BME280;51042;49.696;10.808;2024-02-23T10:36:36;96896.69;;;6.98;100.00
64080;BME280;51042;49.696;10.808;2024-02-23T10:39:07;96891.97;;;6.99;100.00
64080;BME280;51042;49.696;10.808;2024-02-23T10:41:37;96887.63;;;7.02;100.00
64080;BME280;51042;49.696;10.808;2024-02-23T10:44:11;96897.75;;;7.01;100.00
64080;BME280;51042;49.696;10.808;2024-02-23T10:46:37;96895.63;;;6.96;100.00
64080;BME280;51042;49.696;10.808;2024-02-23T10:49:05;96896.69;;;6.98;100.00
64080;BME280;51042;49.696;10.808;2024-02-23T10:51:32;96874.28;;;7.04;100.00
64080;BME280;51042;49.696;10.808;2024-02-23T10:54:00;96877.03;;;7.13;100.00
64080;BME280;51042;49.696;10.808;2024-02-23T10:56:26;96888.47;;;7.29;100.00
64080;BME280;51042;49.696;10.808;2024-02-23T10:58:54;96885.75;;;7.29;100.00
64080;BME280;51042;49.696;10.808;2024-02-23T11:01:20;96885.91;;;7.26;100.00
64080;BME280;51042;49.696;10.808;2024-02-23T11:03:48;96888.16;;;7.27;100.00
64080;BME280;51042;49.696;10.808;2024-02-23T11:06:16;96886.50;;;7.30;100.00
64080;BME280;51042;49.696;10.808;2024-02-23T11:08:48;96889.94;;;7.12;100.00
64080;BME280;51042;49.696;10.808;2024-02-23T11:11:16;96886.97;;;6.97;100.00
64080;BME280;51042;49.696;10.808;2024-02-23T11:13:45;96881.03;;;6.90;100.00
64080;BME280;51042;49.696;10.808;2024-02-23T11:16:12;96876.97;;;6.94;100.00
64080;BME280;51042;49.696;10.808;2024-02-23T11:18:47;96882.34;;;7.07;100.00
64080;BME280;51042;49.696;10.808;2024-02-23T11:21:13;96884.13;;;7.01;100.00
64080;BME280;51042;49.696;10.808;2024-02-23T11:23:47;96874.31;;;7.13;100.00
64080;BME280;51042;49.696;10.808;2024-02-23T11:26:17;96866.72;;;7.08;100.00
64080;BME280;51042;49.696;10.808;2024-02-23T11:28:44;96866.00;;;7.16;100.00
64080;BME280;51042;49.696;10.808;2024-02-23T11:31:25;96861.88;;;7.12;100.00
64080;BME280;51042;49.696;10.808;2024-02-23T11:33:55;96864.81;;;7.26;100.00
64080;BME280;51042;49.696;10.808;2024-02-23T11:36:28;96864.06;;;7.35;100.00
64080;BME280;51042;49.696;10.808;2024-02-23T11:38:57;96867.88;;;7.37;100.00
64080;BME280;51042;49.696;10.808;2024-02-23T11:41:24;96866.81;;;7.35;100.00
64080;BME280;51042;49.696;10.808;2024-02-23T11:43:50;96860.47;;;7.47;100.00
64080;BME280;51042;49.696;10.808;2024-02-23T11:46:17;96869.25;;;7.51;100.00
64080;BME280;51042;49.696;10.808;2024-02-23T11:48:44;96863.94;;;7.38;100.00
64080;BME280;51042;49.696;10.808;2024-02-23T11:51:15;96860.78;;;7.49;100.00
64080;BME280;51042;49.696;10.808;2024-02-23T11:53:41;96851.09;;;7.66;100.00
64080;BME280;51042;49.696;10.808;2024-02-23T11:56:07;96848.50;;;7.63;100.00
64080;BME280;51042;49.696;10.808;2024-02-23T11:58:33;96850.03;;;7.55;100.00
64080;BME280;51042;49.696;10.808;2024-02-23T12:01:00;96847.63;;;7.75;100.00
64080;BME280;51042;49.696;10.808;2024-02-23T12:03:27;96848.38;;;7.66;100.00
64080;BME280;51042;49.696;10.808;2024-02-23T12:05:59;96840.03;;;7.70;100.00
64080;BME280;51042;49.696;10.808;2024-02-23T12:08:25;96841.09;;;7.63;100.00
64080;BME280;51042;49.696;10.808;2024-02-23T12:10:55;96832.91;;;7.72;100.00
64080;BME280;51042;49.696;10.808;2024-02-23T12:13:25;96840.78;;;7.70;100.00
64080;BME280;51042;49.696;10.808;2024-02-23T12:15:52;96838.50;;;7.60;100.00
64080;BME280;51042;49.696;10.808;2024-02-23T12:18:21;96834.84;;;7.54;100.00
64080;BME280;51042;49.696;10.808;2024-02-23T12:20:48;96838.97;;;7.67;100.00
64080;BME280;51042;49.696;10.808;2024-02-23T12:23:14;96836.41;;;7.82;100.00
64080;BME280;51042;49.696;10.808;2024-02-23T12:25:51;96822.75;;;7.73;100.00
64080;BME280;51042;49.696;10.808;2024-02-23T12:28:19;96829.75;;;7.74;100.00
64080;BME280;51042;49.696;10.808;2024-02-23T12:30:44;96832.31;;;7.68;100.00
64080;BME280;51042;49.696;10.808;2024-02-23T12:33:12;96841.72;;;7.76;100.00
64080;BME280;51042;49.696;10.808;2024-02-23T12:35:41;96843.38;;;7.74;100.00
64080;BME280;51042;49.696;10.808;2024-02-23T12:38:06;96838.66;;;7.65;100.00
64080;BME280;51042;49.696;10.808;2024-02-23T12:40:32;96842.63;;;7.83;100.00
64080;BME280;51042;49.696;10.808;2024-02-23T12:42:57;96844.47;;;8.04;100.00
64080;BME280;51042;49.696;10.808;2024-02-23T12:45:23;96835.34;;;8.07;100.00
64080;BME280;51042;49.696;10.808;2024-02-23T12:47:49;96829.41;;;8.17;100.00